sensor_id;sensor_type;location;lat;lon;timestamp;P1;durP1;ratioP1;P2;durP2;ratioP2
11646;SDS011;5880;52.342;9.662;2022-07-10T00:00:40;2.03;;;0.70;;
11646;SDS011;5880;52.342;9.662;2022-07-10T00:03:06;2.33;;;0.73;;
11646;SDS011;5880;52.342;9.662;2022-07-10T00:05:32;2.13;;;0.67;;
11646;SDS011;5880;52.342;9.662;2022-07-10T00:08:01;1.53;;;0.83;;
11646;SDS011;5880;52.342;9.662;2022-07-10T00:10:27;2.80;;;1.10;;
11646;SDS011;5880;52.342;9.662;2022-07-10T00:12:53;2.63;;;1.00;;
11646;SDS011;5880;52.342;9.662;2022-07-10T00:15:20;3.07;;;0.97;;
11646;SDS011;5880;52.342;9.662;2022-07-10T00:17:46;1.27;;;0.60;;
11646;SDS011;5880;52.342;9.662;2022-07-10T00:20:12;1.40;;;0.53;;
11646;SDS011;5880;52.342;9.662;2022-07-10T00:22:40;2.60;;;1.00;;
11646;SDS011;5880;52.342;9.662;2022-07-10T00:25:08;1.47;;;0.70;;
11646;SDS011;5880;52.342;9.662;2022-07-10T00:27:36;1.20;;;0.77;;
11646;SDS011;5880;52.342;9.662;2022-07-10T00:30:03;0.90;;;0.60;;
11646;SDS011;5880;52.342;9.662;2022-07-10T00:32:29;1.67;;;0.70;;
11646;SDS011;5880;52.342;9.662;2022-07-10T00:34:55;1.83;;;0.70;;
11646;SDS011;5880;52.342;9.662;2022-07-10T00:37:21;1.60;;;0.70;;
11646;SDS011;5880;52.342;9.662;2022-07-10T00:39:47;1.27;;;0.80;;
11646;SDS011;5880;52.342;9.662;2022-07-10T00:42:13;1.03;;;0.63;;
11646;SDS011;5880;52.342;9.662;2022-07-10T00:44:40;1.30;;;0.80;;
11646;SDS011;5880;52.342;9.662;2022-07-10T00:47:08;2.27;;;1.07;;
11646;SDS011;5880;52.342;9.662;2022-07-10T00:49:36;2.30;;;0.70;;
11646;SDS011;5880;52.342;9.662;2022-07-10T00:52:05;1.73;;;0.60;;
11646;SDS011;5880;52.342;9.662;2022-07-10T00:54:35;2.47;;;0.83;;
11646;SDS011;5880;52.342;9.662;2022-07-10T00:57:03;1.80;;;0.73;;
11646;SDS011;5880;52.342;9.662;2022-07-10T00:59:31;1.83;;;0.90;;
11646;SDS011;5880;52.342;9.662;2022-07-10T01:01:57;1.77;;;0.93;;
11646;SDS011;5880;52.342;9.662;2022-07-10T01:04:24;1.70;;;0.90;;
11646;SDS011;5880;52.342;9.662;2022-07-10T01:06:50;2.93;;;0.73;;
11646;SDS011;5880;52.342;9.662;2022-07-10T01:09:15;2.50;;;0.70;;
11646;SDS011;5880;52.342;9.662;2022-07-10T01:11:41;1.17;;;0.60;;
11646;SDS011;5880;52.342;9.662;2022-07-10T01:14:07;2.07;;;0.60;;
11646;SDS011;5880;52.342;9.662;2022-07-10T01:16:34;2.03;;;0.80;;
11646;SDS011;5880;52.342;9.662;2022-07-10T01:19:00;1.30;;;0.60;;
11646;SDS011;5880;52.342;9.662;2022-07-10T01:21:29;1.23;;;0.70;;
11646;SDS011;5880;52.342;9.662;2022-07-10T01:23:58;1.47;;;0.60;;
11646;SDS011;5880;52.342;9.662;2022-07-10T01:26:29;1.53;;;0.70;;
11646;SDS011;5880;52.342;9.662;2022-07-10T01:28:55;1.20;;;0.60;;
11646;SDS011;5880;52.342;9.662;2022-07-10T01:31:25;2.17;;;0.80;;
11646;SDS011;5880;52.342;9.662;2022-07-10T01:33:52;1.03;;;0.60;;
11646;SDS011;5880;52.342;9.662;2022-07-10T01:36:19;2.83;;;0.70;;
11646;SDS011;5880;52.342;9.662;2022-07-10T01:38:47;1.43;;;0.77;;
11646;SDS011;5880;52.342;9.662;2022-07-10T01:41:16;2.10;;;0.87;;
11646;SDS011;5880;52.342;9.662;2022-07-10T01:43:41;1.83;;;0.70;;
11646;SDS011;5880;52.342;9.662;2022-07-10T01:46:09;1.50;;;0.80;;
11646;SDS011;5880;52.342;9.662;2022-07-10T01:48:37;1.73;;;0.80;;
11646;SDS011;5880;52.342;9.662;2022-07-10T01:51:06;1.53;;;0.73;;
11646;SDS011;5880;52.342;9.662;2022-07-10T01:53:34;1.93;;;0.80;;
11646;SDS011;5880;52.342;9.662;2022-07-10T01:56:03;1.80;;;0.53;;
11646;SDS011;5880;52.342;9.662;2022-07-10T01:58:31;1.87;;;0.80;;
11646;SDS011;5880;52.342;9.662;2022-07-10T02:00:58;2.50;;;0.70;;
11646;SDS011;5880;52.342;9.662;2022-07-10T02:03:24;1.63;;;0.70;;
11646;SDS011;5880;52.342;9.662;2022-07-10T02:06:08;0.77;;;0.50;;
11646;SDS011;5880;52.342;9.662;2022-07-10T02:08:34;1.17;;;0.60;;
11646;SDS011;5880;52.342;9.662;2022-07-10T02:10:59;1.80;;;0.70;;
11646;SDS011;5880;52.342;9.662;2022-07-10T02:13:25;1.20;;;0.70;;
11646;SDS011;5880;52.342;9.662;2022-07-10T02:15:52;2.70;;;0.80;;
11646;SDS011;5880;52.342;9.662;2022-07-10T02:18:19;1.13;;;0.50;;
11646;SDS011;5880;52.342;9.662;2022-07-10T02:20:45;1.97;;;0.70;;
11646;SDS011;5880;52.342;9.662;2022-07-10T02:23:11;2.23;;;0.63;;
11646;SDS011;5880;52.342;9.662;2022-07-10T02:25:37;1.70;;;0.70;;
11646;SDS011;5880;52.342;9.662;2022-07-10T02:28:03;1.13;;;0.60;;
11646;SDS011;5880;52.342;9.662;2022-07-10T02:30:29;1.60;;;0.60;;
11646;SDS011;5880;52.342;9.662;2022-07-10T02:32:55;1.17;;;0.70;;
11646;SDS011;5880;52.342;9.662;2022-07-10T02:35:21;1.33;;;0.60;;
11646;SDS011;5880;52.342;9.662;2022-07-10T02:37:47;1.93;;;0.73;;
11646;SDS011;5880;52.342;9.662;2022-07-10T02:40:12;3.10;;;0.77;;
11646;SDS011;5880;52.342;9.662;2022-07-10T02:42:38;1.30;;;0.60;;
11646;SDS011;5880;52.342;9.662;2022-07-10T02:45:04;1.20;;;0.67;;
11646;SDS011;5880;52.342;9.662;2022-07-10T02:47:30;1.70;;;0.70;;
11646;SDS011;5880;52.342;9.662;2022-07-10T02:49:56;1.43;;;0.60;;
11646;SDS011;5880;52.342;9.662;2022-07-10T02:52:21;1.53;;;0.77;;
11646;SDS011;5880;52.342;9.662;2022-07-10T02:54:47;1.53;;;0.63;;
11646;SDS011;5880;52.342;9.662;2022-07-10T02:57:13;2.93;;;0.83;;
11646;SDS011;5880;52.342;9.662;2022-07-10T02:59:38;1.63;;;0.70;;
11646;SDS011;5880;52.342;9.662;2022-07-10T03:02:04;2.47;;;0.70;;
11646;SDS011;5880;52.342;9.662;2022-07-10T03:04:30;1.17;;;0.70;;
11646;SDS011;5880;52.342;9.662;2022-07-10T03:06:56;2.77;;;0.90;;
11646;SDS011;5880;52.342;9.662;2022-07-10T03:09:21;2.97;;;0.70;;
11646;SDS011;5880;52.342;9.662;2022-07-10T03:11:47;2.00;;;0.80;;
11646;SDS011;5880;52.342;9.662;2022-07-10T03:14:13;2.43;;;0.90;;
11646;SDS011;5880;52.342;9.662;2022-07-10T03:16:38;1.90;;;0.80;;
11646;SDS011;5880;52.342;9.662;2022-07-10T03:19:04;1.77;;;0.90;;
11646;SDS011;5880;52.342;9.662;2022-07-10T03:21:30;1.90;;;0.93;;
11646;SDS011;5880;52.342;9.662;2022-07-10T03:23:56;2.23;;;0.87;;
11646;SDS011;5880;52.342;9.662;2022-07-10T03:26:21;2.77;;;0.70;;
11646;SDS011;5880;52.342;9.662;2022-07-10T03:28:47;1.50;;;0.73;;
11646;SDS011;5880;52.342;9.662;2022-07-10T03:31:13;3.47;;;1.00;;
11646;SDS011;5880;52.342;9.662;2022-07-10T03:33:38;1.57;;;0.70;;
11646;SDS011;5880;52.342;9.662;2022-07-10T03:36:04;1.80;;;0.80;;
11646;SDS011;5880;52.342;9.662;2022-07-10T03:38:30;3.23;;;0.80;;
11646;SDS011;5880;52.342;9.662;2022-07-10T03:40:56;1.87;;;0.80;;
11646;SDS011;5880;52.342;9.662;2022-07-10T03:43:22;2.37;;;1.17;;
11646;SDS011;5880;52.342;9.662;2022-07-10T03:45:49;2.43;;;1.00;;
11646;SDS011;5880;52.342;9.662;2022-07-10T03:48:16;1.30;;;0.83;;
11646;SDS011;5880;52.342;9.662;2022-07-10T03:50:42;5.03;;;0.80;;
11646;SDS011;5880;52.342;9.662;2022-07-10T03:53:07;1.67;;;0.83;;
11646;SDS011;5880;52.342;9.662;2022-07-10T03:55:33;1.27;;;0.80;;
11646;SDS011;5880;52.342;9.662;2022-07-10T03:58:01;1.40;;;0.70;;
11646;SDS011;5880;52.342;9.662;2022-07-10T04:00:29;1.83;;;0.80;;
11646;SDS011;5880;52.342;9.662;2022-07-10T04:03:00;2.33;;;0.77;;
11646;SDS011;5880;52.342;9.662;2022-07-10T04:05:29;1.90;;;0.90;;
11646;SDS011;5880;52.342;9.662;2022-07-10T04:07:55;3.03;;;0.90;;
11646;SDS011;5880;52.342;9.662;2022-07-10T04:10:23;1.90;;;0.60;;
11646;SDS011;5880;52.342;9.662;2022-07-10T04:12:50;2.20;;;0.90;;
11646;SDS011;5880;52.342;9.662;2022-07-10T04:15:16;1.63;;;0.80;;
11646;SDS011;5880;52.342;9.662;2022-07-10T04:17:42;3.73;;;0.97;;
11646;SDS011;5880;52.342;9.662;2022-07-10T04:20:08;1.37;;;0.70;;
11646;SDS011;5880;52.342;9.662;2022-07-10T04:22:35;1.60;;;0.80;;
11646;SDS011;5880;52.342;9.662;2022-07-10T04:25:02;1.90;;;0.70;;
11646;SDS011;5880;52.342;9.662;2022-07-10T04:27:29;3.07;;;0.70;;
11646;SDS011;5880;52.342;9.662;2022-07-10T04:29:55;1.43;;;0.80;;
11646;SDS011;5880;52.342;9.662;2022-07-10T04:32:21;2.27;;;1.00;;
11646;SDS011;5880;52.342;9.662;2022-07-10T04:34:46;2.43;;;0.73;;
11646;SDS011;5880;52.342;9.662;2022-07-10T04:37:12;1.03;;;0.60;;
11646;SDS011;5880;52.342;9.662;2022-07-10T04:39:38;1.60;;;0.57;;
11646;SDS011;5880;52.342;9.662;2022-07-10T04:42:05;1.43;;;0.77;;
11646;SDS011;5880;52.342;9.662;2022-07-10T04:44:32;2.27;;;0.87;;
11646;SDS011;5880;52.342;9.662;2022-07-10T04:46:59;1.23;;;0.90;;
11646;SDS011;5880;52.342;9.662;2022-07-10T04:49:25;1.10;;;0.60;;
11646;SDS011;5880;52.342;9.662;2022-07-10T04:51:51;2.77;;;0.87;;
11646;SDS011;5880;52.342;9.662;2022-07-10T04:54:17;2.27;;;0.73;;
11646;SDS011;5880;52.342;9.662;2022-07-10T04:56:43;4.23;;;0.70;;
11646;SDS011;5880;52.342;9.662;2022-07-10T04:59:09;1.63;;;0.80;;
11646;SDS011;5880;52.342;9.662;2022-07-10T05:01:35;1.60;;;0.77;;
11646;SDS011;5880;52.342;9.662;2022-07-10T05:04:02;2.43;;;0.80;;
11646;SDS011;5880;52.342;9.662;2022-07-10T05:06:28;1.80;;;0.80;;
11646;SDS011;5880;52.342;9.662;2022-07-10T05:08:54;1.70;;;0.80;;
11646;SDS011;5880;52.342;9.662;2022-07-10T05:11:20;2.50;;;0.67;;
11646;SDS011;5880;52.342;9.662;2022-07-10T05:13:47;0.93;;;0.70;;
11646;SDS011;5880;52.342;9.662;2022-07-10T05:16:13;1.10;;;1.00;;
11646;SDS011;5880;52.342;9.662;2022-07-10T05:18:40;1.90;;;0.93;;
11646;SDS011;5880;52.342;9.662;2022-07-10T05:21:06;1.90;;;0.87;;
11646;SDS011;5880;52.342;9.662;2022-07-10T05:23:33;1.33;;;0.70;;
11646;SDS011;5880;52.342;9.662;2022-07-10T05:25:59;1.67;;;0.90;;
11646;SDS011;5880;52.342;9.662;2022-07-10T05:28:25;2.37;;;1.07;;
11646;SDS011;5880;52.342;9.662;2022-07-10T05:30:51;1.90;;;0.80;;
11646;SDS011;5880;52.342;9.662;2022-07-10T05:33:16;2.97;;;1.17;;
11646;SDS011;5880;52.342;9.662;2022-07-10T05:35:42;1.80;;;0.83;;
11646;SDS011;5880;52.342;9.662;2022-07-10T05:38:08;2.40;;;0.90;;
11646;SDS011;5880;52.342;9.662;2022-07-10T05:40:34;1.80;;;0.90;;
11646;SDS011;5880;52.342;9.662;2022-07-10T05:43:00;2.03;;;1.07;;
11646;SDS011;5880;52.342;9.662;2022-07-10T05:45:25;2.07;;;1.00;;
11646;SDS011;5880;52.342;9.662;2022-07-10T05:47:52;2.43;;;0.90;;
11646;SDS011;5880;52.342;9.662;2022-07-10T05:50:17;3.17;;;1.10;;
11646;SDS011;5880;52.342;9.662;2022-07-10T05:52:43;2.20;;;1.10;;
11646;SDS011;5880;52.342;9.662;2022-07-10T05:55:09;2.30;;;0.80;;
11646;SDS011;5880;52.342;9.662;2022-07-10T05:57:36;2.77;;;1.00;;
11646;SDS011;5880;52.342;9.662;2022-07-10T06:00:03;2.37;;;1.10;;
11646;SDS011;5880;52.342;9.662;2022-07-10T06:02:30;2.63;;;1.10;;
11646;SDS011;5880;52.342;9.662;2022-07-10T06:04:56;2.77;;;1.10;;
11646;SDS011;5880;52.342;9.662;2022-07-10T06:07:21;1.50;;;0.90;;
11646;SDS011;5880;52.342;9.662;2022-07-10T06:09:47;1.63;;;0.90;;
11646;SDS011;5880;52.342;9.662;2022-07-10T06:12:13;1.93;;;0.80;;
11646;SDS011;5880;52.342;9.662;2022-07-10T06:14:40;2.47;;;1.00;;
11646;SDS011;5880;52.342;9.662;2022-07-10T06:17:07;2.47;;;0.90;;
11646;SDS011;5880;52.342;9.662;2022-07-10T06:19:32;2.50;;;1.00;;
11646;SDS011;5880;52.342;9.662;2022-07-10T06:21:58;2.00;;;0.80;;
11646;SDS011;5880;52.342;9.662;2022-07-10T06:24:42;2.07;;;0.90;;
11646;SDS011;5880;52.342;9.662;2022-07-10T06:27:09;3.17;;;1.00;;
11646;SDS011;5880;52.342;9.662;2022-07-10T06:29:36;1.63;;;0.87;;
11646;SDS011;5880;52.342;9.662;2022-07-10T06:32:01;2.97;;;1.00;;
11646;SDS011;5880;52.342;9.662;2022-07-10T06:34:27;3.20;;;1.20;;
11646;SDS011;5880;52.342;9.662;2022-07-10T06:36:53;2.67;;;0.90;;
11646;SDS011;5880;52.342;9.662;2022-07-10T06:39:19;2.47;;;0.90;;
11646;SDS011;5880;52.342;9.662;2022-07-10T06:41:45;2.83;;;1.27;;
11646;SDS011;5880;52.342;9.662;2022-07-10T06:44:11;1.70;;;0.90;;
11646;SDS011;5880;52.342;9.662;2022-07-10T06:46:36;1.47;;;0.90;;
11646;SDS011;5880;52.342;9.662;2022-07-10T06:49:02;1.15;;;0.88;;
11646;SDS011;5880;52.342;9.662;2022-07-10T06:51:28;2.60;;;1.07;;
11646;SDS011;5880;52.342;9.662;2022-07-10T06:53:55;2.03;;;1.00;;
11646;SDS011;5880;52.342;9.662;2022-07-10T06:56:22;3.25;;;0.90;;
11646;SDS011;5880;52.342;9.662;2022-07-10T06:58:48;2.97;;;1.20;;
11646;SDS011;5880;52.342;9.662;2022-07-10T07:01:13;2.90;;;0.90;;
11646;SDS011;5880;52.342;9.662;2022-07-10T07:03:39;2.60;;;1.10;;
11646;SDS011;5880;52.342;9.662;2022-07-10T07:06:05;1.23;;;0.98;;
11646;SDS011;5880;52.342;9.662;2022-07-10T07:08:31;2.08;;;0.88;;
11646;SDS011;5880;52.342;9.662;2022-07-10T07:10:57;0.88;;;0.82;;
11646;SDS011;5880;52.342;9.662;2022-07-10T07:13:22;2.78;;;1.00;;
11646;SDS011;5880;52.342;9.662;2022-07-10T07:15:48;3.43;;;1.30;;
11646;SDS011;5880;52.342;9.662;2022-07-10T07:18:25;1.95;;;0.98;;
11646;SDS011;5880;52.342;9.662;2022-07-10T07:20:57;1.80;;;1.00;;
11646;SDS011;5880;52.342;9.662;2022-07-10T07:23:42;1.60;;;0.90;;
11646;SDS011;5880;52.342;9.662;2022-07-10T07:26:08;1.63;;;0.90;;
11646;SDS011;5880;52.342;9.662;2022-07-10T07:28:34;2.83;;;1.25;;
11646;SDS011;5880;52.342;9.662;2022-07-10T07:30:59;2.90;;;0.98;;
11646;SDS011;5880;52.342;9.662;2022-07-10T07:33:25;2.05;;;0.98;;
11646;SDS011;5880;52.342;9.662;2022-07-10T07:35:51;1.90;;;1.05;;
11646;SDS011;5880;52.342;9.662;2022-07-10T07:38:17;3.63;;;1.38;;
11646;SDS011;5880;52.342;9.662;2022-07-10T07:40:42;2.47;;;1.23;;
11646;SDS011;5880;52.342;9.662;2022-07-10T07:43:08;2.00;;;0.95;;
11646;SDS011;5880;52.342;9.662;2022-07-10T07:45:34;2.63;;;1.08;;
11646;SDS011;5880;52.342;9.662;2022-07-10T07:48:00;1.38;;;0.90;;
11646;SDS011;5880;52.342;9.662;2022-07-10T07:50:33;2.03;;;1.02;;
11646;SDS011;5880;52.342;9.662;2022-07-10T07:53:01;2.10;;;0.90;;
11646;SDS011;5880;52.342;9.662;2022-07-10T07:55:30;2.78;;;0.80;;
11646;SDS011;5880;52.342;9.662;2022-07-10T07:57:58;1.50;;;0.90;;
11646;SDS011;5880;52.342;9.662;2022-07-10T08:00:25;2.03;;;0.98;;
11646;SDS011;5880;52.342;9.662;2022-07-10T08:02:53;4.10;;;1.50;;
11646;SDS011;5880;52.342;9.662;2022-07-10T08:05:21;1.73;;;1.10;;
11646;SDS011;5880;52.342;9.662;2022-07-10T08:07:51;1.08;;;0.90;;
11646;SDS011;5880;52.342;9.662;2022-07-10T08:10:20;3.67;;;1.27;;
11646;SDS011;5880;52.342;9.662;2022-07-10T08:12:50;1.52;;;1.10;;
11646;SDS011;5880;52.342;9.662;2022-07-10T08:15:16;1.77;;;0.90;;
11646;SDS011;5880;52.342;9.662;2022-07-10T08:17:47;2.92;;;1.00;;
11646;SDS011;5880;52.342;9.662;2022-07-10T08:20:18;3.25;;;1.20;;
11646;SDS011;5880;52.342;9.662;2022-07-10T08:22:44;2.17;;;0.90;;
11646;SDS011;5880;52.342;9.662;2022-07-10T08:25:11;3.45;;;1.40;;
11646;SDS011;5880;52.342;9.662;2022-07-10T08:27:37;3.25;;;1.30;;
11646;SDS011;5880;52.342;9.662;2022-07-10T08:30:04;2.63;;;1.10;;
11646;SDS011;5880;52.342;9.662;2022-07-10T08:32:32;5.03;;;1.25;;
11646;SDS011;5880;52.342;9.662;2022-07-10T08:34:57;2.22;;;1.10;;
11646;SDS011;5880;52.342;9.662;2022-07-10T08:37:26;3.35;;;1.10;;
11646;SDS011;5880;52.342;9.662;2022-07-10T08:39:51;2.33;;;1.00;;
11646;SDS011;5880;52.342;9.662;2022-07-10T08:42:17;2.60;;;1.23;;
11646;SDS011;5880;52.342;9.662;2022-07-10T08:44:45;1.67;;;1.20;;
11646;SDS011;5880;52.342;9.662;2022-07-10T08:47:11;2.35;;;0.98;;
11646;SDS011;5880;52.342;9.662;2022-07-10T08:49:37;2.53;;;1.10;;
11646;SDS011;5880;52.342;9.662;2022-07-10T08:52:22;3.33;;;1.63;;
11646;SDS011;5880;52.342;9.662;2022-07-10T08:54:59;4.30;;;1.30;;
11646;SDS011;5880;52.342;9.662;2022-07-10T08:57:25;2.47;;;1.00;;
11646;SDS011;5880;52.342;9.662;2022-07-10T08:59:51;2.25;;;0.88;;
11646;SDS011;5880;52.342;9.662;2022-07-10T09:02:18;1.67;;;0.93;;
11646;SDS011;5880;52.342;9.662;2022-07-10T09:04:44;2.08;;;1.10;;
11646;SDS011;5880;52.342;9.662;2022-07-10T09:07:10;2.92;;;1.23;;
11646;SDS011;5880;52.342;9.662;2022-07-10T09:09:52;2.67;;;1.20;;
11646;SDS011;5880;52.342;9.662;2022-07-10T09:12:22;4.70;;;1.25;;
11646;SDS011;5880;52.342;9.662;2022-07-10T09:14:49;1.65;;;1.25;;
11646;SDS011;5880;52.342;9.662;2022-07-10T09:17:19;1.35;;;0.93;;
11646;SDS011;5880;52.342;9.662;2022-07-10T09:19:45;2.78;;;1.13;;
11646;SDS011;5880;52.342;9.662;2022-07-10T09:22:12;2.70;;;1.10;;
11646;SDS011;5880;52.342;9.662;2022-07-10T09:24:46;1.58;;;0.95;;
11646;SDS011;5880;52.342;9.662;2022-07-10T09:27:13;1.70;;;1.00;;
11646;SDS011;5880;52.342;9.662;2022-07-10T09:29:52;3.25;;;1.40;;
11646;SDS011;5880;52.342;9.662;2022-07-10T09:32:22;1.55;;;0.98;;
11646;SDS011;5880;52.342;9.662;2022-07-10T09:34:49;3.13;;;1.20;;
11646;SDS011;5880;52.342;9.662;2022-07-10T09:37:37;2.55;;;1.02;;
11646;SDS011;5880;52.342;9.662;2022-07-10T09:40:08;1.80;;;1.10;;
11646;SDS011;5880;52.342;9.662;2022-07-10T09:42:36;1.70;;;1.10;;
11646;SDS011;5880;52.342;9.662;2022-07-10T09:47:45;2.70;;;1.20;;
11646;SDS011;5880;52.342;9.662;2022-07-10T09:50:21;1.75;;;0.93;;
11646;SDS011;5880;52.342;9.662;2022-07-10T09:53:01;2.13;;;0.88;;
11646;SDS011;5880;52.342;9.662;2022-07-10T09:55:29;1.88;;;1.20;;
11646;SDS011;5880;52.342;9.662;2022-07-10T09:58:06;3.22;;;1.05;;
11646;SDS011;5880;52.342;9.662;2022-07-10T10:00:34;1.88;;;1.10;;
11646;SDS011;5880;52.342;9.662;2022-07-10T10:03:03;2.15;;;1.08;;
11646;SDS011;5880;52.342;9.662;2022-07-10T10:05:36;2.33;;;1.15;;
11646;SDS011;5880;52.342;9.662;2022-07-10T10:08:19;1.90;;;1.10;;
11646;SDS011;5880;52.342;9.662;2022-07-10T10:11:02;2.33;;;1.23;;
11646;SDS011;5880;52.342;9.662;2022-07-10T10:13:33;1.90;;;1.23;;
11646;SDS011;5880;52.342;9.662;2022-07-10T10:16:00;3.35;;;1.27;;
11646;SDS011;5880;52.342;9.662;2022-07-10T10:18:27;2.78;;;1.20;;
11646;SDS011;5880;52.342;9.662;2022-07-10T10:20:54;2.97;;;1.48;;
11646;SDS011;5880;52.342;9.662;2022-07-10T10:23:23;2.38;;;1.20;;
11646;SDS011;5880;52.342;9.662;2022-07-10T10:25:53;3.67;;;1.05;;
11646;SDS011;5880;52.342;9.662;2022-07-10T10:28:22;2.58;;;1.20;;
11646;SDS011;5880;52.342;9.662;2022-07-10T10:30:50;3.22;;;1.10;;
11646;SDS011;5880;52.342;9.662;2022-07-10T10:35:58;2.30;;;1.15;;
11646;SDS011;5880;52.342;9.662;2022-07-10T10:38:25;2.20;;;1.10;;
11646;SDS011;5880;52.342;9.662;2022-07-10T10:49:18;1.40;;;1.00;;
11646;SDS011;5880;52.342;9.662;2022-07-10T10:59:57;2.70;;;1.20;;
11646;SDS011;5880;52.342;9.662;2022-07-10T11:02:31;2.10;;;0.82;;
11646;SDS011;5880;52.342;9.662;2022-07-10T11:10:33;1.67;;;1.00;;
11646;SDS011;5880;52.342;9.662;2022-07-10T11:13:13;2.22;;;0.85;;
11646;SDS011;5880;52.342;9.662;2022-07-10T11:15:41;2.65;;;0.95;;
11646;SDS011;5880;52.342;9.662;2022-07-10T11:18:14;2.08;;;0.90;;
11646;SDS011;5880;52.342;9.662;2022-07-10T11:20:43;1.10;;;0.80;;
11646;SDS011;5880;52.342;9.662;2022-07-10T11:26:22;2.42;;;0.80;;
11646;SDS011;5880;52.342;9.662;2022-07-10T11:29:04;2.20;;;0.90;;
11646;SDS011;5880;52.342;9.662;2022-07-10T11:31:31;2.05;;;0.80;;
11646;SDS011;5880;52.342;9.662;2022-07-10T11:34:09;1.63;;;0.90;;
11646;SDS011;5880;52.342;9.662;2022-07-10T11:36:38;1.13;;;0.73;;
11646;SDS011;5880;52.342;9.662;2022-07-10T11:39:05;3.60;;;1.00;;
11646;SDS011;5880;52.342;9.662;2022-07-10T11:41:33;1.40;;;0.90;;
11646;SDS011;5880;52.342;9.662;2022-07-10T11:44:12;1.17;;;0.75;;
11646;SDS011;5880;52.342;9.662;2022-07-10T11:46:41;1.83;;;0.93;;
11646;SDS011;5880;52.342;9.662;2022-07-10T11:49:09;2.35;;;1.00;;
11646;SDS011;5880;52.342;9.662;2022-07-10T11:51:36;2.47;;;0.90;;
11646;SDS011;5880;52.342;9.662;2022-07-10T11:56:39;2.20;;;1.02;;
11646;SDS011;5880;52.342;9.662;2022-07-10T11:59:11;1.88;;;0.90;;
11646;SDS011;5880;52.342;9.662;2022-07-10T12:01:44;2.90;;;1.00;;
11646;SDS011;5880;52.342;9.662;2022-07-10T12:04:16;1.85;;;1.00;;
11646;SDS011;5880;52.342;9.662;2022-07-10T12:06:47;2.90;;;1.10;;
11646;SDS011;5880;52.342;9.662;2022-07-10T12:09:14;1.33;;;0.70;;
11646;SDS011;5880;52.342;9.662;2022-07-10T12:11:44;2.92;;;1.05;;
11646;SDS011;5880;52.342;9.662;2022-07-10T12:14:23;2.20;;;1.08;;
11646;SDS011;5880;52.342;9.662;2022-07-10T12:16:51;2.53;;;1.10;;
11646;SDS011;5880;52.342;9.662;2022-07-10T12:19:19;3.17;;;1.10;;
11646;SDS011;5880;52.342;9.662;2022-07-10T12:21:48;1.67;;;1.15;;
11646;SDS011;5880;52.342;9.662;2022-07-10T12:24:17;1.75;;;0.82;;
11646;SDS011;5880;52.342;9.662;2022-07-10T12:26:47;1.90;;;0.90;;
11646;SDS011;5880;52.342;9.662;2022-07-10T12:31:56;1.55;;;1.00;;
11646;SDS011;5880;52.342;9.662;2022-07-10T12:34:32;2.60;;;1.10;;
11646;SDS011;5880;52.342;9.662;2022-07-10T12:37:05;1.77;;;0.98;;
11646;SDS011;5880;52.342;9.662;2022-07-10T12:39:36;2.28;;;1.23;;
11646;SDS011;5880;52.342;9.662;2022-07-10T12:42:11;2.55;;;1.23;;
11646;SDS011;5880;52.342;9.662;2022-07-10T12:44:41;1.48;;;1.00;;
11646;SDS011;5880;52.342;9.662;2022-07-10T12:47:09;0.88;;;0.88;;
11646;SDS011;5880;52.342;9.662;2022-07-10T12:49:50;1.92;;;1.00;;
11646;SDS011;5880;52.342;9.662;2022-07-10T12:52:26;2.40;;;1.08;;
11646;SDS011;5880;52.342;9.662;2022-07-10T12:57:32;1.95;;;1.38;;
11646;SDS011;5880;52.342;9.662;2022-07-10T13:00:09;2.97;;;1.35;;
11646;SDS011;5880;52.342;9.662;2022-07-10T13:02:38;1.92;;;1.25;;
11646;SDS011;5880;52.342;9.662;2022-07-10T13:05:04;3.65;;;1.35;;
11646;SDS011;5880;52.342;9.662;2022-07-10T13:07:31;2.08;;;1.40;;
11646;SDS011;5880;52.342;9.662;2022-07-10T13:09:59;1.75;;;1.40;;
11646;SDS011;5880;52.342;9.662;2022-07-10T13:12:27;2.33;;;1.10;;
11646;SDS011;5880;52.342;9.662;2022-07-10T13:14:53;2.45;;;1.08;;
11646;SDS011;5880;52.342;9.662;2022-07-10T13:17:19;1.15;;;1.05;;
11646;SDS011;5880;52.342;9.662;2022-07-10T13:19:44;2.75;;;1.10;;
11646;SDS011;5880;52.342;9.662;2022-07-10T13:22:10;2.97;;;1.20;;
11646;SDS011;5880;52.342;9.662;2022-07-10T13:24:36;1.85;;;1.00;;
11646;SDS011;5880;52.342;9.662;2022-07-10T13:27:01;1.02;;;0.77;;
11646;SDS011;5880;52.342;9.662;2022-07-10T13:29:27;1.88;;;0.93;;
11646;SDS011;5880;52.342;9.662;2022-07-10T13:31:53;2.33;;;1.02;;
11646;SDS011;5880;52.342;9.662;2022-07-10T13:34:19;2.10;;;1.05;;
11646;SDS011;5880;52.342;9.662;2022-07-10T13:36:44;1.60;;;1.00;;
11646;SDS011;5880;52.342;9.662;2022-07-10T13:39:10;1.45;;;1.08;;
11646;SDS011;5880;52.342;9.662;2022-07-10T13:41:36;2.25;;;1.20;;
11646;SDS011;5880;52.342;9.662;2022-07-10T13:44:01;1.38;;;0.73;;
11646;SDS011;5880;52.342;9.662;2022-07-10T13:46:27;1.23;;;1.00;;
11646;SDS011;5880;52.342;9.662;2022-07-10T13:48:53;1.05;;;0.90;;
11646;SDS011;5880;52.342;9.662;2022-07-10T13:51:18;1.25;;;0.80;;
11646;SDS011;5880;52.342;9.662;2022-07-10T13:53:44;2.15;;;0.90;;
11646;SDS011;5880;52.342;9.662;2022-07-10T13:56:10;3.00;;;2.17;;
11646;SDS011;5880;52.342;9.662;2022-07-10T13:58:36;6.43;;;5.05;;
11646;SDS011;5880;52.342;9.662;2022-07-10T14:01:02;6.30;;;4.13;;
11646;SDS011;5880;52.342;9.662;2022-07-10T14:03:29;4.13;;;2.95;;
11646;SDS011;5880;52.342;9.662;2022-07-10T14:05:56;4.47;;;2.50;;
11646;SDS011;5880;52.342;9.662;2022-07-10T14:08:23;2.03;;;1.52;;
11646;SDS011;5880;52.342;9.662;2022-07-10T14:10:49;2.65;;;1.42;;
11646;SDS011;5880;52.342;9.662;2022-07-10T14:13:15;2.10;;;1.10;;
11646;SDS011;5880;52.342;9.662;2022-07-10T14:15:41;1.48;;;1.20;;
11646;SDS011;5880;52.342;9.662;2022-07-10T14:18:09;1.58;;;1.00;;
11646;SDS011;5880;52.342;9.662;2022-07-10T14:20:36;1.83;;;1.00;;
11646;SDS011;5880;52.342;9.662;2022-07-10T14:23:21;2.28;;;0.90;;
11646;SDS011;5880;52.342;9.662;2022-07-10T14:25:47;2.15;;;1.00;;
11646;SDS011;5880;52.342;9.662;2022-07-10T14:28:13;2.13;;;0.80;;
11646;SDS011;5880;52.342;9.662;2022-07-10T14:30:41;1.10;;;0.90;;
11646;SDS011;5880;52.342;9.662;2022-07-10T14:33:08;1.15;;;0.85;;
11646;SDS011;5880;52.342;9.662;2022-07-10T14:35:34;1.92;;;1.00;;
11646;SDS011;5880;52.342;9.662;2022-07-10T14:38:00;2.70;;;1.20;;
11646;SDS011;5880;52.342;9.662;2022-07-10T14:40:25;2.63;;;1.20;;
11646;SDS011;5880;52.342;9.662;2022-07-10T14:42:51;1.95;;;1.00;;
11646;SDS011;5880;52.342;9.662;2022-07-10T14:45:17;1.13;;;0.80;;
11646;SDS011;5880;52.342;9.662;2022-07-10T14:47:43;1.85;;;1.02;;
11646;SDS011;5880;52.342;9.662;2022-07-10T14:50:09;1.50;;;0.80;;
11646;SDS011;5880;52.342;9.662;2022-07-10T14:52:34;1.85;;;0.70;;
11646;SDS011;5880;52.342;9.662;2022-07-10T14:55:02;1.38;;;0.70;;
11646;SDS011;5880;52.342;9.662;2022-07-10T14:57:31;1.75;;;0.80;;
11646;SDS011;5880;52.342;9.662;2022-07-10T14:59:57;2.58;;;0.80;;
11646;SDS011;5880;52.342;9.662;2022-07-10T15:02:22;2.88;;;0.80;;
11646;SDS011;5880;52.342;9.662;2022-07-10T15:04:48;1.02;;;0.60;;
11646;SDS011;5880;52.342;9.662;2022-07-10T15:07:13;2.95;;;0.80;;
11646;SDS011;5880;52.342;9.662;2022-07-10T15:09:42;0.93;;;0.70;;
11646;SDS011;5880;52.342;9.662;2022-07-10T15:12:09;1.42;;;0.70;;
11646;SDS011;5880;52.342;9.662;2022-07-10T15:14:36;0.93;;;0.70;;
11646;SDS011;5880;52.342;9.662;2022-07-10T15:17:01;1.60;;;1.20;;
11646;SDS011;5880;52.342;9.662;2022-07-10T15:19:28;1.52;;;1.10;;
11646;SDS011;5880;52.342;9.662;2022-07-10T15:21:53;1.23;;;0.80;;
11646;SDS011;5880;52.342;9.662;2022-07-10T15:24:20;2.25;;;1.00;;
11646;SDS011;5880;52.342;9.662;2022-07-10T15:26:46;0.60;;;0.60;;
11646;SDS011;5880;52.342;9.662;2022-07-10T15:29:11;0.95;;;0.68;;
11646;SDS011;5880;52.342;9.662;2022-07-10T15:31:38;0.95;;;0.50;;
11646;SDS011;5880;52.342;9.662;2022-07-10T15:34:07;1.25;;;0.70;;
11646;SDS011;5880;52.342;9.662;2022-07-10T15:36:37;0.70;;;0.70;;
11646;SDS011;5880;52.342;9.662;2022-07-10T15:39:03;1.35;;;0.50;;
11646;SDS011;5880;52.342;9.662;2022-07-10T15:41:29;0.70;;;0.50;;